Disclaimer

Please do not use the information listed here in-flight or in-navigation, as they are not provided to us by the airports but are provided by volunteers, so they might be outdated.

Search


Regions


Airport information page

Radio informations:
Tower (TWR) - 127.15 MHz
Ground (GND) - 279.15 MHz
Automatic Terminal Information Service (ATIS) - 282.525 MHz
Approach (APP) - 376.65 MHz

Airport informations:
Latitude: 51° 36' 59.00" N
Longitude: 001° 05' 45.00" W
Elevation: 226 feet - 69 meters
Operating hours: N/A
Operating agency: Military
Timezone: UTC 0(+1DT) - Last Sunday in March to last Sunday in October
Fuel: JP-8, SemiKeroscene MIL Spec T-83133, without icing inhibitor

Runway information:
01/19 - 5981 x 150 feet< - >1823 x 46 meters
06/24 - 4782 x 100 feet< - >1458 x 30 meters

Recent METARs:
EGUB 180750Z AUTO 36006KT 0350 // VV/// 03/03 Q1028
EGUB 180850Z AUTO 02004KT 4600 // NCD 05/05 Q1028
EGUB 180850Z AUTO 02004KT 4600 // NCD 05/05 Q1028

Airport on the map: